sensor_id;sensor_type;location;lat;lon;timestamp;P1;durP1;ratioP1;P2;durP2;ratioP2
20229;SDS011;12195;55.790;37.572;2023-03-05T00:01:06;1.92;;;0.70;;
20229;SDS011;12195;55.790;37.572;2023-03-05T00:03:38;1.47;;;0.70;;
20229;SDS011;12195;55.790;37.572;2023-03-05T00:06:10;2.58;;;0.57;;
20229;SDS011;12195;55.790;37.572;2023-03-05T00:08:42;0.93;;;0.60;;
20229;SDS011;12195;55.790;37.572;2023-03-05T00:11:15;2.55;;;0.80;;
20229;SDS011;12195;55.790;37.572;2023-03-05T00:13:47;1.10;;;0.70;;
20229;SDS011;12195;55.790;37.572;2023-03-05T00:16:23;1.77;;;1.10;;
20229;SDS011;12195;55.790;37.572;2023-03-05T00:18:57;0.80;;;0.60;;
20229;SDS011;12195;55.790;37.572;2023-03-05T00:21:36;1.67;;;0.80;;
20229;SDS011;12195;55.790;37.572;2023-03-05T00:24:06;2.17;;;0.98;;
20229;SDS011;12195;55.790;37.572;2023-03-05T00:26:40;1.75;;;0.72;;
20229;SDS011;12195;55.790;37.572;2023-03-05T00:29:18;1.37;;;0.78;;
20229;SDS011;12195;55.790;37.572;2023-03-05T00:31:48;1.60;;;0.60;;
20229;SDS011;12195;55.790;37.572;2023-03-05T00:34:20;1.47;;;0.80;;
20229;SDS011;12195;55.790;37.572;2023-03-05T00:36:54;3.15;;;0.90;;
20229;SDS011;12195;55.790;37.572;2023-03-05T00:39:27;0.57;;;0.57;;
20229;SDS011;12195;55.790;37.572;2023-03-05T00:41:59;1.05;;;0.78;;
20229;SDS011;12195;55.790;37.572;2023-03-05T00:44:31;3.10;;;0.82;;
20229;SDS011;12195;55.790;37.572;2023-03-05T00:47:03;6.25;;;0.90;;
20229;SDS011;12195;55.790;37.572;2023-03-05T00:49:35;2.45;;;0.70;;
20229;SDS011;12195;55.790;37.572;2023-03-05T00:52:07;3.27;;;1.00;;
20229;SDS011;12195;55.790;37.572;2023-03-05T00:54:39;2.90;;;1.47;;
20229;SDS011;12195;55.790;37.572;2023-03-05T00:57:12;0.70;;;0.53;;
20229;SDS011;12195;55.790;37.572;2023-03-05T00:59:47;0.93;;;0.70;;
20229;SDS011;12195;55.790;37.572;2023-03-05T01:02:19;1.95;;;0.80;;
20229;SDS011;12195;55.790;37.572;2023-03-05T01:04:51;1.12;;;0.72;;
20229;SDS011;12195;55.790;37.572;2023-03-05T01:07:24;10.55;;;1.12;;
20229;SDS011;12195;55.790;37.572;2023-03-05T01:09:57;1.02;;;0.62;;
20229;SDS011;12195;55.790;37.572;2023-03-05T01:12:29;1.05;;;0.70;;
20229;SDS011;12195;55.790;37.572;2023-03-05T01:15:01;3.35;;;0.70;;
20229;SDS011;12195;55.790;37.572;2023-03-05T01:17:35;1.25;;;0.62;;
20229;SDS011;12195;55.790;37.572;2023-03-05T01:20:07;1.50;;;0.88;;
20229;SDS011;12195;55.790;37.572;2023-03-05T01:22:41;2.17;;;0.88;;
20229;SDS011;12195;55.790;37.572;2023-03-05T01:25:14;0.90;;;0.72;;
20229;SDS011;12195;55.790;37.572;2023-03-05T01:27:48;1.72;;;0.93;;
20229;SDS011;12195;55.790;37.572;2023-03-05T01:30:20;5.53;;;2.27;;
20229;SDS011;12195;55.790;37.572;2023-03-05T01:32:52;3.02;;;1.57;;
20229;SDS011;12195;55.790;37.572;2023-03-05T01:35:25;2.50;;;1.27;;
20229;SDS011;12195;55.790;37.572;2023-03-05T01:37:58;7.08;;;2.70;;
20229;SDS011;12195;55.790;37.572;2023-03-05T01:40:30;2.95;;;1.65;;
20229;SDS011;12195;55.790;37.572;2023-03-05T01:43:12;1.40;;;1.00;;
20229;SDS011;12195;55.790;37.572;2023-03-05T01:48:49;4.75;;;1.15;;
20229;SDS011;12195;55.790;37.572;2023-03-05T01:51:24;1.85;;;1.20;;
20229;SDS011;12195;55.790;37.572;2023-03-05T01:53:58;2.72;;;1.00;;
20229;SDS011;12195;55.790;37.572;2023-03-05T01:59:03;2.30;;;0.88;;
20229;SDS011;12195;55.790;37.572;2023-03-05T02:01:37;3.75;;;1.55;;
20229;SDS011;12195;55.790;37.572;2023-03-05T02:04:12;3.92;;;1.90;;
20229;SDS011;12195;55.790;37.572;2023-03-05T02:06:46;5.10;;;1.25;;
20229;SDS011;12195;55.790;37.572;2023-03-05T02:09:19;2.75;;;1.27;;
20229;SDS011;12195;55.790;37.572;2023-03-05T02:14:24;0.82;;;0.60;;
20229;SDS011;12195;55.790;37.572;2023-03-05T02:16:58;3.13;;;1.10;;
20229;SDS011;12195;55.790;37.572;2023-03-05T02:19:44;4.00;;;1.85;;
20229;SDS011;12195;55.790;37.572;2023-03-05T02:22:17;4.85;;;1.95;;
20229;SDS011;12195;55.790;37.572;2023-03-05T02:24:52;1.27;;;0.88;;
20229;SDS011;12195;55.790;37.572;2023-03-05T02:27:26;2.92;;;1.42;;
20229;SDS011;12195;55.790;37.572;2023-03-05T02:30:05;1.45;;;0.82;;
20229;SDS011;12195;55.790;37.572;2023-03-05T02:32:38;2.33;;;0.80;;
20229;SDS011;12195;55.790;37.572;2023-03-05T02:35:11;2.00;;;0.93;;
20229;SDS011;12195;55.790;37.572;2023-03-05T02:37:43;1.85;;;0.90;;
20229;SDS011;12195;55.790;37.572;2023-03-05T02:40:15;3.67;;;1.00;;
20229;SDS011;12195;55.790;37.572;2023-03-05T02:42:47;5.47;;;1.70;;
20229;SDS011;12195;55.790;37.572;2023-03-05T02:45:19;1.98;;;0.78;;
20229;SDS011;12195;55.790;37.572;2023-03-05T02:47:52;3.55;;;0.75;;
20229;SDS011;12195;55.790;37.572;2023-03-05T02:50:24;5.85;;;2.52;;
20229;SDS011;12195;55.790;37.572;2023-03-05T02:52:58;2.90;;;0.95;;
20229;SDS011;12195;55.790;37.572;2023-03-05T02:55:30;2.98;;;1.32;;
20229;SDS011;12195;55.790;37.572;2023-03-05T02:58:02;3.20;;;1.22;;
20229;SDS011;12195;55.790;37.572;2023-03-05T03:00:34;7.60;;;1.92;;
20229;SDS011;12195;55.790;37.572;2023-03-05T03:03:06;4.15;;;1.57;;
20229;SDS011;12195;55.790;37.572;2023-03-05T03:05:39;4.10;;;2.00;;
20229;SDS011;12195;55.790;37.572;2023-03-05T03:08:11;4.78;;;2.22;;
20229;SDS011;12195;55.790;37.572;2023-03-05T03:10:44;4.75;;;1.32;;
20229;SDS011;12195;55.790;37.572;2023-03-05T03:13:16;3.33;;;1.47;;
20229;SDS011;12195;55.790;37.572;2023-03-05T03:15:49;2.43;;;1.53;;
20229;SDS011;12195;55.790;37.572;2023-03-05T03:18:21;1.87;;;0.90;;
20229;SDS011;12195;55.790;37.572;2023-03-05T03:20:53;1.95;;;0.72;;
20229;SDS011;12195;55.790;37.572;2023-03-05T03:23:25;2.10;;;1.00;;
20229;SDS011;12195;55.790;37.572;2023-03-05T03:25:57;6.60;;;1.55;;
20229;SDS011;12195;55.790;37.572;2023-03-05T03:28:30;9.45;;;1.50;;
20229;SDS011;12195;55.790;37.572;2023-03-05T03:31:02;4.42;;;1.67;;
20229;SDS011;12195;55.790;37.572;2023-03-05T03:33:35;2.52;;;0.90;;
20229;SDS011;12195;55.790;37.572;2023-03-05T03:36:08;2.98;;;1.20;;
20229;SDS011;12195;55.790;37.572;2023-03-05T03:38:40;1.55;;;0.90;;
20229;SDS011;12195;55.790;37.572;2023-03-05T03:41:13;1.92;;;0.88;;
20229;SDS011;12195;55.790;37.572;2023-03-05T03:43:47;9.98;;;1.32;;
20229;SDS011;12195;55.790;37.572;2023-03-05T03:46:19;1.67;;;0.95;;
20229;SDS011;12195;55.790;37.572;2023-03-05T03:48:52;4.95;;;1.45;;
20229;SDS011;12195;55.790;37.572;2023-03-05T03:51:24;1.95;;;0.80;;
20229;SDS011;12195;55.790;37.572;2023-03-05T03:53:56;3.02;;;0.88;;
20229;SDS011;12195;55.790;37.572;2023-03-05T03:56:29;4.67;;;0.80;;
20229;SDS011;12195;55.790;37.572;2023-03-05T03:59:01;17.98;;;2.02;;
20229;SDS011;12195;55.790;37.572;2023-03-05T04:01:34;2.10;;;1.00;;
20229;SDS011;12195;55.790;37.572;2023-03-05T04:04:06;4.47;;;1.20;;
20229;SDS011;12195;55.790;37.572;2023-03-05T04:06:40;8.30;;;1.37;;
20229;SDS011;12195;55.790;37.572;2023-03-05T04:09:12;7.92;;;1.30;;
20229;SDS011;12195;55.790;37.572;2023-03-05T04:11:44;4.58;;;0.93;;
20229;SDS011;12195;55.790;37.572;2023-03-05T04:14:17;3.25;;;1.22;;
20229;SDS011;12195;55.790;37.572;2023-03-05T04:16:49;5.62;;;1.32;;
20229;SDS011;12195;55.790;37.572;2023-03-05T04:19:21;6.05;;;1.25;;
20229;SDS011;12195;55.790;37.572;2023-03-05T04:21:53;6.08;;;1.05;;
20229;SDS011;12195;55.790;37.572;2023-03-05T04:24:25;11.88;;;2.00;;
20229;SDS011;12195;55.790;37.572;2023-03-05T04:26:57;3.83;;;0.98;;
20229;SDS011;12195;55.790;37.572;2023-03-05T04:29:29;6.80;;;0.95;;
20229;SDS011;12195;55.790;37.572;2023-03-05T04:32:01;4.90;;;1.02;;
20229;SDS011;12195;55.790;37.572;2023-03-05T04:34:35;14.10;;;1.92;;
20229;SDS011;12195;55.790;37.572;2023-03-05T04:37:08;2.47;;;1.25;;
20229;SDS011;12195;55.790;37.572;2023-03-05T04:39:40;18.32;;;1.82;;
20229;SDS011;12195;55.790;37.572;2023-03-05T04:42:12;7.28;;;1.25;;
20229;SDS011;12195;55.790;37.572;2023-03-05T04:44:45;5.28;;;1.17;;
20229;SDS011;12195;55.790;37.572;2023-03-05T04:47:19;13.53;;;1.62;;
20229;SDS011;12195;55.790;37.572;2023-03-05T04:49:51;3.65;;;1.07;;
20229;SDS011;12195;55.790;37.572;2023-03-05T04:52:23;2.42;;;0.90;;
20229;SDS011;12195;55.790;37.572;2023-03-05T04:54:55;6.08;;;1.45;;
20229;SDS011;12195;55.790;37.572;2023-03-05T04:57:29;9.53;;;1.22;;
20229;SDS011;12195;55.790;37.572;2023-03-05T05:00:02;2.65;;;1.10;;
20229;SDS011;12195;55.790;37.572;2023-03-05T05:02:36;8.80;;;1.30;;
20229;SDS011;12195;55.790;37.572;2023-03-05T05:05:09;1.10;;;0.62;;
20229;SDS011;12195;55.790;37.572;2023-03-05T05:07:43;0.95;;;0.60;;
20229;SDS011;12195;55.790;37.572;2023-03-05T05:10:16;2.35;;;0.85;;
20229;SDS011;12195;55.790;37.572;2023-03-05T05:12:47;4.70;;;0.70;;
20229;SDS011;12195;55.790;37.572;2023-03-05T05:15:20;2.87;;;0.78;;
20229;SDS011;12195;55.790;37.572;2023-03-05T05:17:52;4.15;;;0.88;;
20229;SDS011;12195;55.790;37.572;2023-03-05T05:20:25;6.62;;;1.25;;
20229;SDS011;12195;55.790;37.572;2023-03-05T05:22:57;5.20;;;1.75;;
20229;SDS011;12195;55.790;37.572;2023-03-05T05:25:29;3.98;;;1.12;;
20229;SDS011;12195;55.790;37.572;2023-03-05T05:28:02;14.45;;;1.55;;
20229;SDS011;12195;55.790;37.572;2023-03-05T05:30:35;15.55;;;1.87;;
20229;SDS011;12195;55.790;37.572;2023-03-05T05:33:08;1.75;;;0.75;;
20229;SDS011;12195;55.790;37.572;2023-03-05T05:35:40;5.60;;;1.55;;
20229;SDS011;12195;55.790;37.572;2023-03-05T05:38:12;6.20;;;1.25;;
20229;SDS011;12195;55.790;37.572;2023-03-05T05:40:44;9.98;;;1.50;;
20229;SDS011;12195;55.790;37.572;2023-03-05T05:43:16;4.25;;;1.42;;
20229;SDS011;12195;55.790;37.572;2023-03-05T05:45:48;7.80;;;1.47;;
20229;SDS011;12195;55.790;37.572;2023-03-05T05:48:20;3.58;;;1.02;;
20229;SDS011;12195;55.790;37.572;2023-03-05T05:50:53;3.43;;;0.70;;
20229;SDS011;12195;55.790;37.572;2023-03-05T05:53:25;6.20;;;0.88;;
20229;SDS011;12195;55.790;37.572;2023-03-05T05:55:58;10.08;;;1.47;;
20229;SDS011;12195;55.790;37.572;2023-03-05T05:58:30;6.03;;;1.15;;
20229;SDS011;12195;55.790;37.572;2023-03-05T06:01:11;3.80;;;1.40;;
20229;SDS011;12195;55.790;37.572;2023-03-05T06:03:50;8.35;;;1.47;;
20229;SDS011;12195;55.790;37.572;2023-03-05T06:06:23;5.08;;;1.20;;
20229;SDS011;12195;55.790;37.572;2023-03-05T06:08:56;3.52;;;1.17;;
20229;SDS011;12195;55.790;37.572;2023-03-05T06:11:28;13.80;;;1.50;;
20229;SDS011;12195;55.790;37.572;2023-03-05T06:14:02;4.47;;;1.20;;
20229;SDS011;12195;55.790;37.572;2023-03-05T06:16:37;0.42;;;0.42;;
20229;SDS011;12195;55.790;37.572;2023-03-05T06:19:12;28.73;;;2.47;;
20229;SDS011;12195;55.790;37.572;2023-03-05T06:21:45;1.80;;;0.50;;
20229;SDS011;12195;55.790;37.572;2023-03-05T06:24:17;6.28;;;1.37;;
20229;SDS011;12195;55.790;37.572;2023-03-05T06:26:49;10.63;;;1.92;;
20229;SDS011;12195;55.790;37.572;2023-03-05T06:29:21;1.02;;;0.80;;
20229;SDS011;12195;55.790;37.572;2023-03-05T06:31:53;11.12;;;1.80;;
20229;SDS011;12195;55.790;37.572;2023-03-05T06:34:26;4.08;;;1.07;;
20229;SDS011;12195;55.790;37.572;2023-03-05T06:36:58;15.15;;;2.25;;
20229;SDS011;12195;55.790;37.572;2023-03-05T06:39:31;16.75;;;2.08;;
20229;SDS011;12195;55.790;37.572;2023-03-05T06:42:03;4.47;;;0.75;;
20229;SDS011;12195;55.790;37.572;2023-03-05T06:44:39;1.95;;;0.95;;
20229;SDS011;12195;55.790;37.572;2023-03-05T06:47:11;8.40;;;2.15;;
20229;SDS011;12195;55.790;37.572;2023-03-05T06:49:43;2.35;;;0.70;;
20229;SDS011;12195;55.790;37.572;2023-03-05T06:52:16;3.35;;;1.10;;
20229;SDS011;12195;55.790;37.572;2023-03-05T06:54:48;7.50;;;1.50;;
20229;SDS011;12195;55.790;37.572;2023-03-05T06:57:22;1.55;;;0.60;;
20229;SDS011;12195;55.790;37.572;2023-03-05T06:59:54;14.25;;;1.72;;
20229;SDS011;12195;55.790;37.572;2023-03-05T07:02:29;5.40;;;1.00;;
20229;SDS011;12195;55.790;37.572;2023-03-05T07:05:01;12.73;;;1.67;;
20229;SDS011;12195;55.790;37.572;2023-03-05T07:07:34;15.95;;;1.52;;
20229;SDS011;12195;55.790;37.572;2023-03-05T07:10:07;9.48;;;1.47;;
20229;SDS011;12195;55.790;37.572;2023-03-05T07:12:39;1.65;;;0.88;;
20229;SDS011;12195;55.790;37.572;2023-03-05T07:15:12;10.28;;;1.27;;
20229;SDS011;12195;55.790;37.572;2023-03-05T07:17:44;2.95;;;1.10;;
20229;SDS011;12195;55.790;37.572;2023-03-05T07:20:16;3.58;;;1.10;;
20229;SDS011;12195;55.790;37.572;2023-03-05T07:22:48;8.10;;;1.70;;
20229;SDS011;12195;55.790;37.572;2023-03-05T07:25:20;6.60;;;1.40;;
20229;SDS011;12195;55.790;37.572;2023-03-05T07:27:53;17.10;;;2.98;;
20229;SDS011;12195;55.790;37.572;2023-03-05T07:30:25;19.75;;;3.47;;
20229;SDS011;12195;55.790;37.572;2023-03-05T07:32:58;15.43;;;2.40;;
20229;SDS011;12195;55.790;37.572;2023-03-05T07:35:31;17.45;;;2.27;;
20229;SDS011;12195;55.790;37.572;2023-03-05T07:38:04;4.50;;;1.67;;
20229;SDS011;12195;55.790;37.572;2023-03-05T07:40:36;12.15;;;2.15;;
20229;SDS011;12195;55.790;37.572;2023-03-05T07:43:08;15.65;;;2.60;;
20229;SDS011;12195;55.790;37.572;2023-03-05T07:45:41;6.20;;;2.60;;
20229;SDS011;12195;55.790;37.572;2023-03-05T07:48:15;12.90;;;2.87;;
20229;SDS011;12195;55.790;37.572;2023-03-05T07:50:58;10.90;;;1.87;;
20229;SDS011;12195;55.790;37.572;2023-03-05T07:53:31;6.05;;;1.60;;
20229;SDS011;12195;55.790;37.572;2023-03-05T07:56:04;7.62;;;2.27;;
20229;SDS011;12195;55.790;37.572;2023-03-05T07:58:36;10.88;;;2.72;;
20229;SDS011;12195;55.790;37.572;2023-03-05T08:01:10;9.68;;;2.42;;
20229;SDS011;12195;55.790;37.572;2023-03-05T08:03:44;10.55;;;1.70;;
20229;SDS011;12195;55.790;37.572;2023-03-05T08:06:16;11.63;;;2.55;;
20229;SDS011;12195;55.790;37.572;2023-03-05T08:08:48;15.65;;;2.80;;
20229;SDS011;12195;55.790;37.572;2023-03-05T08:11:21;9.48;;;2.65;;
20229;SDS011;12195;55.790;37.572;2023-03-05T08:13:53;14.40;;;3.37;;
20229;SDS011;12195;55.790;37.572;2023-03-05T08:16:26;6.30;;;2.45;;
20229;SDS011;12195;55.790;37.572;2023-03-05T08:18:58;7.58;;;2.75;;
20229;SDS011;12195;55.790;37.572;2023-03-05T08:21:33;9.60;;;2.80;;
20229;SDS011;12195;55.790;37.572;2023-03-05T08:24:06;10.58;;;3.05;;
20229;SDS011;12195;55.790;37.572;2023-03-05T08:26:39;17.48;;;4.12;;
20229;SDS011;12195;55.790;37.572;2023-03-05T08:29:11;24.02;;;5.25;;
20229;SDS011;12195;55.790;37.572;2023-03-05T08:31:45;6.42;;;2.52;;
20229;SDS011;12195;55.790;37.572;2023-03-05T08:34:17;6.53;;;1.87;;
20229;SDS011;12195;55.790;37.572;2023-03-05T08:36:52;12.85;;;3.25;;
20229;SDS011;12195;55.790;37.572;2023-03-05T08:39:24;5.42;;;2.58;;
20229;SDS011;12195;55.790;37.572;2023-03-05T08:41:56;15.53;;;3.67;;
20229;SDS011;12195;55.790;37.572;2023-03-05T08:44:28;11.10;;;3.35;;
20229;SDS011;12195;55.790;37.572;2023-03-05T08:47:00;25.10;;;3.67;;
20229;SDS011;12195;55.790;37.572;2023-03-05T08:49:32;3.62;;;1.60;;
20229;SDS011;12195;55.790;37.572;2023-03-05T08:52:04;3.83;;;2.30;;
20229;SDS011;12195;55.790;37.572;2023-03-05T08:54:37;13.08;;;3.27;;
20229;SDS011;12195;55.790;37.572;2023-03-05T08:57:09;15.58;;;3.37;;
20229;SDS011;12195;55.790;37.572;2023-03-05T08:59:41;11.68;;;2.37;;
20229;SDS011;12195;55.790;37.572;2023-03-05T09:02:13;14.45;;;2.83;;
20229;SDS011;12195;55.790;37.572;2023-03-05T09:04:45;8.20;;;2.00;;
20229;SDS011;12195;55.790;37.572;2023-03-05T09:07:17;9.68;;;2.30;;
20229;SDS011;12195;55.790;37.572;2023-03-05T09:09:49;25.55;;;4.90;;
20229;SDS011;12195;55.790;37.572;2023-03-05T09:12:22;8.83;;;2.27;;
20229;SDS011;12195;55.790;37.572;2023-03-05T09:14:54;14.35;;;2.40;;
20229;SDS011;12195;55.790;37.572;2023-03-05T09:17:29;12.68;;;3.30;;
20229;SDS011;12195;55.790;37.572;2023-03-05T09:20:01;10.15;;;2.67;;
20229;SDS011;12195;55.790;37.572;2023-03-05T09:22:35;21.68;;;3.75;;
20229;SDS011;12195;55.790;37.572;2023-03-05T09:25:07;12.90;;;3.60;;
20229;SDS011;12195;55.790;37.572;2023-03-05T09:30:14;7.83;;;2.92;;
20229;SDS011;12195;55.790;37.572;2023-03-05T09:32:47;6.75;;;2.85;;
20229;SDS011;12195;55.790;37.572;2023-03-05T09:35:20;13.48;;;3.35;;
20229;SDS011;12195;55.790;37.572;2023-03-05T09:37:53;5.05;;;1.95;;
20229;SDS011;12195;55.790;37.572;2023-03-05T09:40:26;7.03;;;2.75;;
20229;SDS011;12195;55.790;37.572;2023-03-05T09:45:56;5.03;;;2.67;;
20229;SDS011;12195;55.790;37.572;2023-03-05T09:51:38;10.82;;;2.60;;
20229;SDS011;12195;55.790;37.572;2023-03-05T09:54:02;5.58;;;2.65;;
20229;SDS011;12195;55.790;37.572;2023-03-05T09:56:40;6.78;;;2.65;;
20229;SDS011;12195;55.790;37.572;2023-03-05T09:59:42;12.50;;;3.25;;
20229;SDS011;12195;55.790;37.572;2023-03-05T10:02:04;9.60;;;3.25;;
20229;SDS011;12195;55.790;37.572;2023-03-05T10:07:23;5.33;;;2.60;;
20229;SDS011;12195;55.790;37.572;2023-03-05T10:10:04;5.35;;;2.85;;
20229;SDS011;12195;55.790;37.572;2023-03-05T10:12:39;3.72;;;2.50;;
20229;SDS011;12195;55.790;37.572;2023-03-05T10:15:23;5.37;;;2.58;;
20229;SDS011;12195;55.790;37.572;2023-03-05T10:20:47;6.30;;;2.75;;
20229;SDS011;12195;55.790;37.572;2023-03-05T10:29:21;14.73;;;3.62;;
20229;SDS011;12195;55.790;37.572;2023-03-05T10:37:45;3.58;;;2.50;;
20229;SDS011;12195;55.790;37.572;2023-03-05T10:43:23;5.10;;;2.95;;
20229;SDS011;12195;55.790;37.572;2023-03-05T10:45:58;4.53;;;2.42;;
20229;SDS011;12195;55.790;37.572;2023-03-05T10:48:41;4.78;;;2.67;;
20229;SDS011;12195;55.790;37.572;2023-03-05T10:51:19;10.38;;;4.20;;
20229;SDS011;12195;55.790;37.572;2023-03-05T10:54:51;4.17;;;3.05;;
20229;SDS011;12195;55.790;37.572;2023-03-05T10:57:19;11.15;;;4.22;;
20229;SDS011;12195;55.790;37.572;2023-03-05T11:00:00;7.87;;;4.28;;
20229;SDS011;12195;55.790;37.572;2023-03-05T11:02:32;22.87;;;5.00;;
20229;SDS011;12195;55.790;37.572;2023-03-05T11:05:04;6.40;;;3.27;;
20229;SDS011;12195;55.790;37.572;2023-03-05T11:07:40;18.25;;;4.92;;
20229;SDS011;12195;55.790;37.572;2023-03-05T11:10:16;12.82;;;4.28;;
20229;SDS011;12195;55.790;37.572;2023-03-05T11:12:50;10.65;;;4.17;;
20229;SDS011;12195;55.790;37.572;2023-03-05T11:20:48;10.32;;;4.75;;
20229;SDS011;12195;55.790;37.572;2023-03-05T11:23:22;9.95;;;4.00;;
20229;SDS011;12195;55.790;37.572;2023-03-05T11:26:20;5.55;;;2.98;;
20229;SDS011;12195;55.790;37.572;2023-03-05T11:31:27;5.20;;;2.95;;
20229;SDS011;12195;55.790;37.572;2023-03-05T11:34:21;7.17;;;3.30;;
20229;SDS011;12195;55.790;37.572;2023-03-05T11:39:28;8.00;;;3.77;;
20229;SDS011;12195;55.790;37.572;2023-03-05T11:42:09;9.50;;;4.10;;
20229;SDS011;12195;55.790;37.572;2023-03-05T11:44:47;3.80;;;2.50;;
20229;SDS011;12195;55.790;37.572;2023-03-05T11:47:27;6.22;;;3.22;;
20229;SDS011;12195;55.790;37.572;2023-03-05T11:52:57;5.47;;;3.22;;
20229;SDS011;12195;55.790;37.572;2023-03-05T11:55:39;5.80;;;2.85;;
20229;SDS011;12195;55.790;37.572;2023-03-05T11:58:26;6.15;;;2.90;;
20229;SDS011;12195;55.790;37.572;2023-03-05T12:01:07;7.90;;;3.45;;
20229;SDS011;12195;55.790;37.572;2023-03-05T12:03:46;4.67;;;2.40;;
20229;SDS011;12195;55.790;37.572;2023-03-05T12:06:37;4.90;;;2.62;;
20229;SDS011;12195;55.790;37.572;2023-03-05T12:20:56;9.40;;;3.12;;
20229;SDS011;12195;55.790;37.572;2023-03-05T12:23:42;9.15;;;2.58;;
20229;SDS011;12195;55.790;37.572;2023-03-05T12:26:16;4.67;;;2.47;;
20229;SDS011;12195;55.790;37.572;2023-03-05T12:28:54;5.00;;;2.92;;
20229;SDS011;12195;55.790;37.572;2023-03-05T12:31:28;4.53;;;3.10;;
20229;SDS011;12195;55.790;37.572;2023-03-05T12:37:13;5.47;;;2.65;;
20229;SDS011;12195;55.790;37.572;2023-03-05T12:39:46;5.72;;;3.65;;
20229;SDS011;12195;55.790;37.572;2023-03-05T12:47:45;6.62;;;2.90;;
20229;SDS011;12195;55.790;37.572;2023-03-05T12:53:13;5.50;;;3.20;;
20229;SDS011;12195;55.790;37.572;2023-03-05T12:55:53;10.50;;;3.00;;
20229;SDS011;12195;55.790;37.572;2023-03-05T12:58:38;6.47;;;2.72;;
20229;SDS011;12195;55.790;37.572;2023-03-05T13:04:03;3.05;;;2.12;;
20229;SDS011;12195;55.790;37.572;2023-03-05T13:06:37;7.30;;;3.30;;
20229;SDS011;12195;55.790;37.572;2023-03-05T13:09:17;4.17;;;2.70;;
20229;SDS011;12195;55.790;37.572;2023-03-05T13:12:02;5.25;;;2.77;;
20229;SDS011;12195;55.790;37.572;2023-03-05T13:14:40;4.00;;;2.52;;
20229;SDS011;12195;55.790;37.572;2023-03-05T13:17:30;3.42;;;2.20;;
20229;SDS011;12195;55.790;37.572;2023-03-05T13:28:31;5.72;;;2.60;;
20229;SDS011;12195;55.790;37.572;2023-03-05T13:31:12;4.35;;;3.02;;
20229;SDS011;12195;55.790;37.572;2023-03-05T13:33:51;7.83;;;3.17;;
20229;SDS011;12195;55.790;37.572;2023-03-05T13:36:25;4.22;;;2.60;;
20229;SDS011;12195;55.790;37.572;2023-03-05T13:38:58;7.75;;;3.22;;
20229;SDS011;12195;55.790;37.572;2023-03-05T13:41:31;3.50;;;2.52;;
20229;SDS011;12195;55.790;37.572;2023-03-05T13:44:03;4.62;;;2.37;;
20229;SDS011;12195;55.790;37.572;2023-03-05T13:46:36;3.17;;;2.50;;
20229;SDS011;12195;55.790;37.572;2023-03-05T13:49:16;3.77;;;2.43;;
20229;SDS011;12195;55.790;37.572;2023-03-05T13:51:53;3.85;;;2.17;;
20229;SDS011;12195;55.790;37.572;2023-03-05T13:54:28;3.40;;;1.35;;
20229;SDS011;12195;55.790;37.572;2023-03-05T13:57:02;3.85;;;1.57;;
20229;SDS011;12195;55.790;37.572;2023-03-05T13:59:36;2.92;;;1.90;;
20229;SDS011;12195;55.790;37.572;2023-03-05T14:02:16;4.42;;;1.85;;
20229;SDS011;12195;55.790;37.572;2023-03-05T14:04:50;2.52;;;1.77;;
20229;SDS011;12195;55.790;37.572;2023-03-05T14:10:30;4.03;;;2.20;;
20229;SDS011;12195;55.790;37.572;2023-03-05T14:13:05;5.00;;;2.55;;
20229;SDS011;12195;55.790;37.572;2023-03-05T14:16:05;4.45;;;2.45;;
20229;SDS011;12195;55.790;37.572;2023-03-05T14:18:40;6.62;;;2.22;;
20229;SDS011;12195;55.790;37.572;2023-03-05T14:21:41;3.45;;;1.70;;
20229;SDS011;12195;55.790;37.572;2023-03-05T14:24:22;2.27;;;1.70;;
20229;SDS011;12195;55.790;37.572;2023-03-05T14:26:58;3.22;;;2.37;;
20229;SDS011;12195;55.790;37.572;2023-03-05T14:29:34;6.75;;;2.50;;
20229;SDS011;12195;55.790;37.572;2023-03-05T14:32:15;6.42;;;2.92;;
20229;SDS011;12195;55.790;37.572;2023-03-05T14:34:42;5.10;;;2.87;;
20229;SDS011;12195;55.790;37.572;2023-03-05T14:37:20;3.40;;;2.00;;
20229;SDS011;12195;55.790;37.572;2023-03-05T14:39:56;3.47;;;2.52;;
20229;SDS011;12195;55.790;37.572;2023-03-05T14:42:36;6.78;;;2.87;;
20229;SDS011;12195;55.790;37.572;2023-03-05T14:45:24;8.68;;;3.58;;
20229;SDS011;12195;55.790;37.572;2023-03-05T14:47:58;3.98;;;2.12;;
20229;SDS011;12195;55.790;37.572;2023-03-05T14:50:34;3.80;;;2.52;;
20229;SDS011;12195;55.790;37.572;2023-03-05T14:53:15;3.85;;;2.30;;
20229;SDS011;12195;55.790;37.572;2023-03-05T14:55:45;5.17;;;2.98;;
20229;SDS011;12195;55.790;37.572;2023-03-05T14:58:20;4.97;;;2.85;;
20229;SDS011;12195;55.790;37.572;2023-03-05T15:00:55;5.70;;;2.80;;
20229;SDS011;12195;55.790;37.572;2023-03-05T15:03:27;4.62;;;2.50;;
20229;SDS011;12195;55.790;37.572;2023-03-05T15:05:59;6.40;;;3.22;;
20229;SDS011;12195;55.790;37.572;2023-03-05T15:08:32;4.40;;;2.50;;
20229;SDS011;12195;55.790;37.572;2023-03-05T15:11:04;5.87;;;3.10;;
20229;SDS011;12195;55.790;37.572;2023-03-05T15:13:39;4.72;;;3.27;;
20229;SDS011;12195;55.790;37.572;2023-03-05T15:16:11;9.45;;;4.30;;
20229;SDS011;12195;55.790;37.572;2023-03-05T15:18:46;4.45;;;3.45;;
20229;SDS011;12195;55.790;37.572;2023-03-05T15:21:18;3.65;;;2.27;;
20229;SDS011;12195;55.790;37.572;2023-03-05T15:23:50;6.28;;;3.77;;
20229;SDS011;12195;55.790;37.572;2023-03-05T15:26:22;4.62;;;2.83;;
20229;SDS011;12195;55.790;37.572;2023-03-05T15:28:54;7.25;;;3.10;;
20229;SDS011;12195;55.790;37.572;2023-03-05T15:31:26;5.58;;;3.00;;
20229;SDS011;12195;55.790;37.572;2023-03-05T15:33:59;5.47;;;3.25;;
20229;SDS011;12195;55.790;37.572;2023-03-05T15:36:31;5.30;;;2.65;;
20229;SDS011;12195;55.790;37.572;2023-03-05T15:39:03;7.05;;;3.30;;
20229;SDS011;12195;55.790;37.572;2023-03-05T15:41:35;3.70;;;2.90;;
20229;SDS011;12195;55.790;37.572;2023-03-05T15:44:07;9.23;;;3.35;;
20229;SDS011;12195;55.790;37.572;2023-03-05T15:46:39;8.03;;;3.30;;
20229;SDS011;12195;55.790;37.572;2023-03-05T15:49:12;6.15;;;3.95;;
20229;SDS011;12195;55.790;37.572;2023-03-05T15:51:44;4.65;;;2.77;;
20229;SDS011;12195;55.790;37.572;2023-03-05T15:54:17;5.17;;;2.85;;
20229;SDS011;12195;55.790;37.572;2023-03-05T15:56:49;7.35;;;3.20;;
20229;SDS011;12195;55.790;37.572;2023-03-05T15:59:22;6.42;;;3.40;;
20229;SDS011;12195;55.790;37.572;2023-03-05T16:01:54;6.20;;;3.62;;
20229;SDS011;12195;55.790;37.572;2023-03-05T16:04:26;6.00;;;3.62;;
20229;SDS011;12195;55.790;37.572;2023-03-05T16:07:12;3.50;;;2.47;;
20229;SDS011;12195;55.790;37.572;2023-03-05T16:09:46;7.23;;;2.80;;
20229;SDS011;12195;55.790;37.572;2023-03-05T16:12:21;5.20;;;2.75;;
20229;SDS011;12195;55.790;37.572;2023-03-05T16:14:57;6.03;;;3.12;;
20229;SDS011;12195;55.790;37.572;2023-03-05T16:17:30;5.30;;;3.00;;
20229;SDS011;12195;55.790;37.572;2023-03-05T16:20:02;7.72;;;4.90;;
20229;SDS011;12195;55.790;37.572;2023-03-05T16:22:36;6.15;;;3.10;;
20229;SDS011;12195;55.790;37.572;2023-03-05T16:25:09;12.20;;;3.60;;
20229;SDS011;12195;55.790;37.572;2023-03-05T16:27:43;4.37;;;2.67;;
20229;SDS011;12195;55.790;37.572;2023-03-05T16:30:15;4.17;;;2.85;;
20229;SDS011;12195;55.790;37.572;2023-03-05T16:32:48;5.50;;;2.85;;
20229;SDS011;12195;55.790;37.572;2023-03-05T16:35:22;5.35;;;3.02;;
20229;SDS011;12195;55.790;37.572;2023-03-05T16:37:54;4.78;;;2.90;;
20229;SDS011;12195;55.790;37.572;2023-03-05T16:40:26;5.17;;;3.12;;
20229;SDS011;12195;55.790;37.572;2023-03-05T16:45:32;4.22;;;2.98;;